Time;durP1;ratioP1;P1;durP2;ratioP2;P2;SDS_P1;SDS_P2;PMS_P1;PMS_P2;Temp;Humidity;BMP_temperature;BMP_pressure;BME280_temperature;BME280_humidity;BME280_pressure;Samples;Min_cycle;Max_cycle;Signal;HPM_P1;HPM_P2
2023/11/06 00:01:11;;;;;;;;;;;;;;;16.30;52.45;99792.34;5095667;28;1033;-50
2023/11/06 00:03:36;;;;;;;;;;;;;;;17.06;54.30;99800.78;5087375;28;1146;-47
2023/11/06 00:06:02;;;;;;;;;;;;;;;17.08;53.29;99792.66;5089250;28;1120;-50
2023/11/06 00:08:28;;;;;;;;;;;;;;;16.71;53.48;99794.13;5096117;28;1027;-46
2023/11/06 00:10:53;;;;;;;;;;;;;;;16.55;53.24;99818.56;5091809;28;1910;-47
2023/11/06 00:13:19;;;;;;;;;;;;;;;16.42;52.81;99809.00;5095963;28;1078;-47
2023/11/06 00:15:44;;;;;;;;;;;;;;;16.31;52.38;99802.00;5095320;28;1098;-48
2023/11/06 00:18:10;;;;;;;;;;;;;;;16.44;53.68;99809.72;5095739;28;1085;-50
2023/11/06 00:20:36;;;;;;;;;;;;;;;17.42;53.28;99818.84;5082827;28;1256;-50
2023/11/06 00:23:01;;;;;;;;;;;;;;;16.92;53.28;99828.56;5084196;28;982;-47
2023/11/06 00:25:27;;;;;;;;;;;;;;;16.65;53.31;99838.00;5082641;28;1189;-48
2023/11/06 00:27:52;;;;;;;;;;;;;;;16.51;52.71;99850.69;5088449;28;1087;-51
2023/11/06 00:30:18;;;;;;;;;;;;;;;16.40;52.46;99846.31;5088974;28;1078;-48
2023/11/06 00:32:43;;;;;;;;;;;;;;;16.25;52.76;99848.47;5075333;28;1898;-45
2023/11/06 00:35:09;;;;;;;;;;;;;;;16.88;54.13;99859.06;5094125;28;959;-50
2023/11/06 00:37:35;;;;;;;;;;;;;;;17.17;53.33;99858.28;5102127;28;1181;-48
2023/11/06 00:40:00;;;;;;;;;;;;;;;16.73;53.51;99858.59;5099185;28;982;-45
2023/11/06 00:42:26;;;;;;;;;;;;;;;16.49;53.05;99855.28;5099128;28;1153;-50
2023/11/06 00:44:53;;;;;;;;;;;;;;;16.37;52.86;99859.00;5080732;28;1069;-45
2023/11/06 00:47:18;;;;;;;;;;;;;;;16.26;52.43;99860.78;5087128;28;831;-49
2023/11/06 00:49:44;;;;;;;;;;;;;;;16.67;54.04;99862.63;5085616;28;1131;-47
2023/11/06 00:52:09;;;;;;;;;;;;;;;17.48;53.13;99870.63;5080744;28;1909;-46
2023/11/06 00:54:35;;;;;;;;;;;;;;;16.94;53.48;99860.31;5085431;28;1127;-44
2023/11/06 00:57:00;;;;;;;;;;;;;;;16.65;53.38;99851.28;5114938;28;1385;-47
2023/11/06 00:59:26;;;;;;;;;;;;;;;16.51;52.75;99852.50;5092589;28;1177;-46
2023/11/06 01:01:54;;;;;;;;;;;;;;;16.32;52.68;99847.94;5099194;28;1038;-49
2023/11/06 01:04:20;;;;;;;;;;;;;;;16.31;52.35;99854.22;5100613;28;1201;-48
2023/11/06 01:06:46;;;;;;;;;;;;;;;16.20;52.02;99863.13;5080680;28;1109;-48
2023/11/06 01:09:12;;;;;;;;;;;;;;;16.89;54.04;99855.41;5098643;28;1050;-49
2023/11/06 01:11:37;;;;;;;;;;;;;;;17.02;53.67;99840.06;5096518;28;1905;-47
2023/11/06 01:14:03;;;;;;;;;;;;;;;16.68;53.29;99826.28;5097362;28;1146;-47
2023/11/06 01:16:29;;;;;;;;;;;;;;;16.48;52.92;99837.66;5097941;28;1254;-46
2023/11/06 01:18:54;;;;;;;;;;;;;;;16.30;52.77;99869.31;5098898;28;1121;-51
2023/11/06 01:21:19;;;;;;;;;;;;;;;17.13;53.92;99876.31;5098582;28;1070;-49
2023/11/06 01:23:45;;;;;;;;;;;;;;;16.98;53.33;99862.53;5099069;28;1109;-49
2023/11/06 01:26:10;;;;;;;;;;;;;;;16.67;53.22;99859.97;5098290;28;1030;-48
2023/11/06 01:28:36;;;;;;;;;;;;;;;16.49;53.03;99857.09;5098530;28;1137;-46
2023/11/06 01:31:02;;;;;;;;;;;;;;;16.34;52.46;99860.13;5098663;28;1983;-52
2023/11/06 01:33:28;;;;;;;;;;;;;;;17.00;54.16;99860.59;5098021;28;1062;-50
2023/11/06 01:35:53;;;;;;;;;;;;;;;16.87;53.55;99850.22;5084606;28;1011;-47
2023/11/06 01:38:19;;;;;;;;;;;;;;;16.61;53.25;99840.09;5098293;28;1058;-48
2023/11/06 01:40:44;;;;;;;;;;;;;;;16.45;52.80;99843.25;5098558;28;1159;-47
2023/11/06 01:43:10;;;;;;;;;;;;;;;16.33;52.61;99841.66;5098355;28;1136;-48
2023/11/06 01:45:36;;;;;;;;;;;;;;;17.20;53.80;99844.72;5096116;28;2560;-48
2023/11/06 01:48:03;;;;;;;;;;;;;;;16.98;53.10;99840.47;5098665;28;1091;-45
2023/11/06 01:50:32;;;;;;;;;;;;;;;16.65;53.00;99830.03;5098001;28;1141;-48
2023/11/06 01:52:58;;;;;;;;;;;;;;;16.45;53.17;99835.28;5098104;28;1917;-46
2023/11/06 01:55:27;;;;;;;;;;;;;;;16.32;52.79;99843.47;5079489;28;1090;-46
2023/11/06 01:57:54;;;;;;;;;;;;;;;16.44;53.92;99851.34;5097958;28;1192;-44
2023/11/06 02:00:20;;;;;;;;;;;;;;;17.53;53.24;99855.09;5096845;28;1264;-46
2023/11/06 02:02:46;;;;;;;;;;;;;;;17.05;53.16;99830.13;5096903;28;1353;-45
2023/11/06 02:05:12;;;;;;;;;;;;;;;16.75;53.32;99838.03;5096523;28;1047;-48
2023/11/06 02:07:38;;;;;;;;;;;;;;;16.56;52.73;99846.78;5097670;28;1059;-45
2023/11/06 02:10:04;;;;;;;;;;;;;;;16.44;52.70;99868.13;5097263;28;1052;-50
2023/11/06 02:12:31;;;;;;;;;;;;;;;16.33;52.56;99876.19;5097779;28;1914;-47
2023/11/06 02:14:57;;;;;;;;;;;;;;;16.97;54.25;99884.78;5097950;28;1114;-46
2023/11/06 02:17:25;;;;;;;;;;;;;;;17.24;53.07;99888.66;5096213;28;1355;-52
2023/11/06 02:19:51;;;;;;;;;;;;;;;16.79;53.33;99889.06;5096037;28;1299;-46
2023/11/06 02:22:20;;;;;;;;;;;;;;;16.57;52.91;99882.97;5097351;28;1046;-49
2023/11/06 02:24:46;;;;;;;;;;;;;;;16.44;52.90;99885.84;5097568;28;1182;-45
2023/11/06 02:27:11;;;;;;;;;;;;;;;16.32;53.11;99883.28;5095650;28;1171;-45
2023/11/06 02:29:37;;;;;;;;;;;;;;;17.37;53.53;99893.69;5096009;28;1145;-47
2023/11/06 02:32:03;;;;;;;;;;;;;;;17.04;53.51;99892.22;5097364;28;1963;-50
2023/11/06 02:34:28;;;;;;;;;;;;;;;16.73;53.37;99891.28;5096995;28;1292;-44
2023/11/06 02:36:54;;;;;;;;;;;;;;;16.50;52.67;99886.16;5096892;28;1078;-48
2023/11/06 02:39:19;;;;;;;;;;;;;;;16.43;52.75;99894.81;5096175;28;1351;-43
2023/11/06 02:41:45;;;;;;;;;;;;;;;16.27;52.46;99898.75;5095869;28;1094;-44
2023/11/06 02:44:11;;;;;;;;;;;;;;;16.22;52.14;99907.13;5097325;28;1086;-45
2023/11/06 02:46:37;;;;;;;;;;;;;;;16.72;54.08;99902.88;5096668;28;1150;-45
2023/11/06 02:49:02;;;;;;;;;;;;;;;16.95;53.51;99904.50;5095540;28;1150;-46
2023/11/06 02:51:28;;;;;;;;;;;;;;;16.59;53.57;99897.81;5096705;28;1974;-47
2023/11/06 02:53:54;;;;;;;;;;;;;;;16.40;53.33;99910.00;5096755;28;1130;-46
2023/11/06 02:56:19;;;;;;;;;;;;;;;17.17;54.05;99908.78;5095868;28;1151;-46
2023/11/06 02:58:45;;;;;;;;;;;;;;;17.09;53.34;99905.97;5096030;28;1002;-49
2023/11/06 03:01:11;;;;;;;;;;;;;;;16.74;53.56;99895.63;5096954;28;1003;-43
2023/11/06 03:03:36;;;;;;;;;;;;;;;16.57;52.83;99897.09;5097410;28;1093;-47
2023/11/06 03:06:02;;;;;;;;;;;;;;;16.44;52.74;99899.97;5096937;28;1027;-51
2023/11/06 03:08:27;;;;;;;;;;;;;;;16.43;53.61;99908.06;5095514;28;1121;-47
2023/11/06 03:10:53;;;;;;;;;;;;;;;17.40;53.12;99907.69;5096379;28;1910;-46
2023/11/06 03:13:19;;;;;;;;;;;;;;;16.92;53.30;99907.41;5095498;28;1232;-47
2023/11/06 03:15:44;;;;;;;;;;;;;;;16.63;53.04;99912.50;5096450;28;1136;-48
2023/11/06 03:18:10;;;;;;;;;;;;;;;16.48;52.56;99912.00;5094956;28;1046;-48
2023/11/06 03:20:35;;;;;;;;;;;;;;;16.32;52.63;99924.91;5111920;28;1082;-44
2023/11/06 03:23:01;;;;;;;;;;;;;;;16.21;52.25;99924.03;5096059;28;1107;-46
2023/11/06 03:25:27;;;;;;;;;;;;;;;16.70;54.17;99934.03;5096436;28;1046;-47
2023/11/06 03:27:52;;;;;;;;;;;;;;;17.35;53.20;99946.16;5096465;28;1030;-47
2023/11/06 03:30:18;;;;;;;;;;;;;;;16.84;53.42;99937.31;5096331;28;1054;-48
2023/11/06 03:32:44;;;;;;;;;;;;;;;16.57;52.96;99941.38;5096790;28;1901;-46
2023/11/06 03:35:10;;;;;;;;;;;;;;;16.48;52.67;99938.53;5096324;28;1243;-49
2023/11/06 03:37:35;;;;;;;;;;;;;;;17.23;53.70;99934.78;5096265;28;1054;-52
2023/11/06 03:40:01;;;;;;;;;;;;;;;16.95;53.29;99950.50;5095918;28;1103;-47
2023/11/06 03:42:26;;;;;;;;;;;;;;;16.65;53.15;99944.22;5096288;28;1085;-47
2023/11/06 03:44:52;;;;;;;;;;;;;;;16.46;53.16;99947.63;5095438;28;1097;-47
2023/11/06 03:47:17;;;;;;;;;;;;;;;16.37;52.45;99959.88;5095899;28;899;-49
2023/11/06 03:49:43;;;;;;;;;;;;;;;16.25;52.59;99965.25;5096167;28;1050;-46
2023/11/06 03:52:11;;;;;;;;;;;;;;;16.20;51.95;99967.44;5096217;28;1889;-47
2023/11/06 03:54:40;;;;;;;;;;;;;;;16.30;53.43;99962.19;5096371;28;1038;-47
2023/11/06 03:57:05;;;;;;;;;;;;;;;17.37;53.13;99970.81;5096502;28;1130;-49
2023/11/06 03:59:31;;;;;;;;;;;;;;;16.93;53.42;99978.19;5095373;28;1165;-48
2023/11/06 04:01:57;;;;;;;;;;;;;;;16.58;53.32;99972.28;5096628;28;1137;-48
2023/11/06 04:04:22;;;;;;;;;;;;;;;16.44;52.72;99984.94;5096212;28;1125;-45
2023/11/06 04:06:48;;;;;;;;;;;;;;;16.50;53.52;99978.25;5096054;28;1066;-45
2023/11/06 04:09:13;;;;;;;;;;;;;;;17.56;53.05;99985.13;5096469;28;1046;-46
2023/11/06 04:11:40;;;;;;;;;;;;;;;17.11;52.96;99989.91;5099252;28;1971;-47
2023/11/06 04:14:06;;;;;;;;;;;;;;;16.75;53.18;99997.38;5100099;28;1014;-49
2023/11/06 04:16:31;;;;;;;;;;;;;;;16.52;53.04;99989.56;5093751;28;2309;-51
2023/11/06 04:18:57;;;;;;;;;;;;;;;17.29;53.63;99991.91;5101524;28;1949;-43
2023/11/06 04:21:22;;;;;;;;;;;;;;;17.18;53.08;99992.00;5116872;28;1937;-45
2023/11/06 04:23:48;;;;;;;;;;;;;;;16.73;53.37;99996.69;5100216;27;1826;-42
2023/11/06 04:26:13;;;;;;;;;;;;;;;16.59;52.90;100005.81;5099558;28;2120;-44
2023/11/06 04:28:40;;;;;;;;;;;;;;;16.48;52.87;100009.41;5100784;28;1926;-42
2023/11/06 04:31:05;;;;;;;;;;;;;;;16.36;52.41;100013.94;5098740;28;2122;-45
2023/11/06 04:33:31;;;;;;;;;;;;;;;16.77;54.23;100017.53;5099156;28;1069;-44
2023/11/06 04:35:56;;;;;;;;;;;;;;;17.30;53.10;100019.34;5094955;28;1038;-41
2023/11/06 04:38:22;;;;;;;;;;;;;;;16.83;53.40;100018.00;5097713;28;1038;-41
2023/11/06 04:40:47;;;;;;;;;;;;;;;16.59;52.92;100025.25;5099171;28;1046;-43
2023/11/06 04:43:13;;;;;;;;;;;;;;;16.47;52.88;100027.13;5096992;28;1285;-41
2023/11/06 04:45:38;;;;;;;;;;;;;;;16.32;52.63;100029.28;5090873;28;1304;-45
2023/11/06 04:48:05;;;;;;;;;;;;;;;16.21;52.46;100032.84;5093087;28;1296;-41
2023/11/06 04:50:30;;;;;;;;;;;;;;;17.32;53.54;100020.03;5086572;28;1328;-44
2023/11/06 04:52:56;;;;;;;;;;;;;;;16.98;53.43;100040.56;5098577;28;2020;-41
2023/11/06 04:55:22;;;;;;;;;;;;;;;16.61;53.31;100047.22;5099165;28;1041;-42
2023/11/06 04:57:48;;;;;;;;;;;;;;;16.39;52.95;100056.16;5098523;28;1122;-44
2023/11/06 05:00:13;;;;;;;;;;;;;;;17.00;54.28;100053.72;5097304;28;1094;-44
2023/11/06 05:02:39;;;;;;;;;;;;;;;17.00;53.80;100062.53;5091210;28;2463;-46
2023/11/06 05:05:06;;;;;;;;;;;;;;;16.67;53.20;100068.91;5095308;28;1099;-45
2023/11/06 05:07:32;;;;;;;;;;;;;;;16.48;52.98;100079.25;5098701;28;1115;-43
2023/11/06 05:09:57;;;;;;;;;;;;;;;16.29;52.53;100072.00;5098152;28;1130;-42
2023/11/06 05:12:23;;;;;;;;;;;;;;;16.81;54.44;100076.56;5098377;28;1980;-46
2023/11/06 05:14:48;;;;;;;;;;;;;;;17.24;53.37;100081.84;5085421;28;980;-44
2023/11/06 05:17:14;;;;;;;;;;;;;;;16.83;53.52;100095.03;5098174;28;1109;-42
2023/11/06 05:19:41;;;;;;;;;;;;;;;16.56;53.23;100083.94;5098384;28;1085;-45
2023/11/06 05:22:10;;;;;;;;;;;;;;;16.43;52.95;100091.25;5097993;28;1093;-46
2023/11/06 05:24:37;;;;;;;;;;;;;;;16.29;52.49;100087.91;5098379;28;871;-46
2023/11/06 05:27:03;;;;;;;;;;;;;;;16.77;54.35;100096.38;5130796;27;1162;-47
2023/11/06 05:29:28;;;;;;;;;;;;;;;16.96;53.65;100108.97;5098397;28;1220;-47
2023/11/06 05:31:54;;;;;;;;;;;;;;;16.59;54.96;100115.53;5097752;28;2249;-46
2023/11/06 05:34:19;;;;;;;;;;;;;;;17.05;52.85;100114.47;5094995;28;1284;-41
2023/11/06 05:36:45;;;;;;;;;;;;;;;16.16;52.36;100111.97;5087364;28;1308;-46
2023/11/06 05:39:11;;;;;;;;;;;;;;;15.84;51.26;100118.03;5088234;28;1300;-41
2023/11/06 05:41:37;;;;;;;;;;;;;;;15.55;50.28;100124.69;5093848;28;1374;-48
2023/11/06 05:44:02;;;;;;;;;;;;;;;16.12;52.62;100135.25;5097841;28;1160;-48
2023/11/06 05:46:28;;;;;;;;;;;;;;;15.99;51.64;100137.22;5094938;28;1328;-42
2023/11/06 05:48:53;;;;;;;;;;;;;;;15.78;50.20;100133.47;5087562;28;868;-46
2023/11/06 05:51:19;;;;;;;;;;;;;;;16.20;52.06;100144.41;5095323;28;1914;-44
2023/11/06 05:53:44;;;;;;;;;;;;;;;16.11;50.66;100140.69;5097502;28;1174;-51
2023/11/06 05:56:10;;;;;;;;;;;;;;;15.73;49.69;100151.53;5097612;28;1022;-50
2023/11/06 05:58:35;;;;;;;;;;;;;;;15.64;48.82;100154.94;5097020;28;1363;-51
2023/11/06 06:01:01;;;;;;;;;;;;;;;16.60;50.90;100161.53;5097612;28;2304;-51
2023/11/06 06:03:27;;;;;;;;;;;;;;;15.96;50.28;100167.47;5097674;28;1173;-49
2023/11/06 06:05:53;;;;;;;;;;;;;;;15.74;49.18;100166.50;5097422;28;1066;-50
2023/11/06 06:08:20;;;;;;;;;;;;;;;16.07;50.68;100179.88;5097501;28;1193;-48
2023/11/06 06:10:46;;;;;;;;;;;;;;;16.53;51.01;100180.63;5097271;28;1113;-46
2023/11/06 06:13:11;;;;;;;;;;;;;;;16.03;50.18;100175.81;5095852;28;1905;-45
2023/11/06 06:15:37;;;;;;;;;;;;;;;16.48;51.19;100182.78;5097638;28;1093;-51
2023/11/06 06:18:02;;;;;;;;;;;;;;;16.56;50.97;100189.31;5084347;28;975;-47
2023/11/06 06:20:28;;;;;;;;;;;;;;;16.13;49.98;100192.66;5096976;28;1145;-50
2023/11/06 06:22:53;;;;;;;;;;;;;;;15.96;49.09;100193.13;5096877;28;1126;-51
2023/11/06 06:25:19;;;;;;;;;;;;;;;15.81;47.92;100200.50;5097025;28;859;-48
2023/11/06 06:27:44;;;;;;;;;;;;;;;15.71;47.57;100209.19;5096980;28;1073;-49
2023/11/06 06:30:12;;;;;;;;;;;;;;;16.54;49.17;100208.03;5097103;28;1113;-48
2023/11/06 06:32:38;;;;;;;;;;;;;;;16.02;48.94;100219.19;5091595;28;2584;-48
2023/11/06 06:35:04;;;;;;;;;;;;;;;15.88;48.11;100217.63;5096713;28;1061;-38
2023/11/06 06:37:30;;;;;;;;;;;;;;;15.80;47.04;100228.81;5096653;28;1425;-41
2023/11/06 06:39:55;;;;;;;;;;;;;;;15.70;46.98;100223.38;5097323;28;1042;-46
2023/11/06 06:42:21;;;;;;;;;;;;;;;16.88;48.86;100225.66;5095467;28;1162;-41
2023/11/06 06:44:46;;;;;;;;;;;;;;;16.15;48.66;100233.19;5084964;28;1146;-45
2023/11/06 06:47:12;;;;;;;;;;;;;;;16.33;49.97;100235.31;5097202;28;1155;-47
2023/11/06 06:49:40;;;;;;;;;;;;;;;16.71;49.99;100230.53;5096640;28;868;-46
2023/11/06 06:52:09;;;;;;;;;;;;;;;16.15;49.16;100233.19;5096912;28;1905;-47
2023/11/06 06:54:35;;;;;;;;;;;;;;;16.10;48.01;100235.34;5096789;28;1049;-43
2023/11/06 06:57:02;;;;;;;;;;;;;;;15.94;47.12;100235.69;5096741;28;1042;-41
2023/11/06 06:59:27;;;;;;;;;;;;;;;15.94;46.50;100240.16;5096198;28;1137;-42
2023/11/06 07:01:53;;;;;;;;;;;;;;;16.06;47.30;100246.34;5097022;28;906;-47
2023/11/06 07:04:19;;;;;;;;;;;;;;;16.66;48.93;100240.69;5088958;28;1256;-39
2023/11/06 07:06:45;;;;;;;;;;;;;;;16.29;48.36;100255.13;5096125;28;1113;-37
2023/11/06 07:09:10;;;;;;;;;;;;;;;16.20;47.34;100251.38;5084874;28;1066;-41
2023/11/06 07:11:36;;;;;;;;;;;;;;;16.03;48.13;100250.09;5078274;28;1910;-38
2023/11/06 07:14:02;;;;;;;;;;;;;;;16.64;48.84;100267.38;5080364;28;1218;-42
2023/11/06 07:16:27;;;;;;;;;;;;;;;16.24;48.22;100273.22;5096654;28;1046;-39
2023/11/06 07:18:53;;;;;;;;;;;;;;;16.10;47.35;100283.13;5096362;28;1054;-42
2023/11/06 07:21:18;;;;;;;;;;;;;;;15.97;47.03;100277.91;5096807;28;1065;-40
2023/11/06 07:23:44;;;;;;;;;;;;;;;16.18;47.95;100284.34;5096662;28;1105;-39
2023/11/06 07:26:10;;;;;;;;;;;;;;;16.70;47.97;100294.41;5092950;28;1066;-39
2023/11/06 07:28:36;;;;;;;;;;;;;;;16.13;48.12;100290.00;5090385;28;1253;-39
2023/11/06 07:31:01;;;;;;;;;;;;;;;16.06;47.36;100297.59;5080989;28;1905;-38
2023/11/06 07:33:27;;;;;;;;;;;;;;;15.93;46.69;100295.03;5079975;28;1156;-40
2023/11/06 07:35:52;;;;;;;;;;;;;;;15.77;46.26;100295.34;5089661;28;1220;-39
2023/11/06 07:38:18;;;;;;;;;;;;;;;16.65;48.08;100300.94;5093597;28;1250;-39
2023/11/06 07:40:44;;;;;;;;;;;;;;;16.75;48.45;100305.47;5095444;28;1211;-47
2023/11/06 07:43:09;;;;;;;;;;;;;;;16.19;48.06;100321.38;5117656;28;1269;-47
2023/11/06 07:45:35;;;;;;;;;;;;;;;16.07;47.51;100311.69;5083404;28;1282;-44
2023/11/06 07:48:05;;;;;;;;;;;;;;;16.02;46.81;100318.22;5084296;28;1176;-42
2023/11/06 07:50:33;;;;;;;;;;;;;;;15.96;45.97;100316.03;5096115;28;1322;-45
2023/11/06 07:52:59;;;;;;;;;;;;;;;15.78;45.95;100321.75;5095352;28;1949;-44
2023/11/06 07:55:25;;;;;;;;;;;;;;;15.83;45.85;100318.75;5091220;28;1200;-43
2023/11/06 07:57:50;;;;;;;;;;;;;;;15.65;45.74;100321.00;5091493;28;1445;-47
2023/11/06 08:00:16;;;;;;;;;;;;;;;16.91;47.57;100318.38;5099219;28;1473;-47
2023/11/06 08:02:41;;;;;;;;;;;;;;;16.18;47.78;100324.16;5094500;28;1287;-45
2023/11/06 08:05:08;;;;;;;;;;;;;;;15.96;47.27;100318.66;5096690;28;1480;-43
2023/11/06 08:07:38;;;;;;;;;;;;;;;15.95;46.66;100322.28;5098660;28;1406;-42
2023/11/06 08:10:07;;;;;;;;;;;;;;;15.76;46.39;100322.84;5082582;28;1383;-44
2023/11/06 08:12:33;;;;;;;;;;;;;;;16.91;47.87;100330.81;5084375;28;1910;-46
2023/11/06 08:14:58;;;;;;;;;;;;;;;16.43;48.36;100333.69;5084769;28;1402;-44
2023/11/06 08:17:24;;;;;;;;;;;;;;;16.24;47.87;100328.97;5082275;28;1129;-44
2023/11/06 08:19:50;;;;;;;;;;;;;;;15.97;47.19;100338.06;5086132;28;1034;-48
2023/11/06 08:22:16;;;;;;;;;;;;;;;15.88;46.62;100340.47;5099956;28;1134;-41
2023/11/06 08:24:41;;;;;;;;;;;;;;;15.82;46.45;100343.59;5099333;28;1050;-46
2023/11/06 08:27:07;;;;;;;;;;;;;;;16.56;47.84;100346.81;5099921;28;1209;-44
2023/11/06 08:29:33;;;;;;;;;;;;;;;16.39;47.86;100356.13;5099598;28;1026;-45
2023/11/06 08:31:59;;;;;;;;;;;;;;;16.14;47.52;100350.06;5099828;27;1910;-42
2023/11/06 08:34:25;;;;;;;;;;;;;;;15.90;46.90;100362.41;5088755;28;1156;-46
2023/11/06 08:36:51;;;;;;;;;;;;;;;17.10;47.91;100370.91;5092404;28;1480;-45
2023/11/06 08:39:20;;;;;;;;;;;;;;;16.23;48.31;100373.22;5098999;28;1390;-45
2023/11/06 08:41:45;;;;;;;;;;;;;;;16.07;47.76;100370.94;5099268;27;1294;-41
2023/11/06 08:44:11;;;;;;;;;;;;;;;15.93;47.07;100376.41;5099539;28;1536;-46
2023/11/06 08:46:36;;;;;;;;;;;;;;;15.91;46.27;100377.38;5099165;28;1178;-44
2023/11/06 08:49:02;;;;;;;;;;;;;;;15.86;46.30;100378.69;5096398;28;1476;-46
2023/11/06 08:51:31;;;;;;;;;;;;;;;16.72;47.92;100370.34;5097365;28;2035;-48
2023/11/06 08:53:57;;;;;;;;;;;;;;;16.36;47.79;100380.25;5097266;28;1359;-46
2023/11/06 08:56:23;;;;;;;;;;;;;;;16.13;47.35;100378.41;5091870;28;1228;-44
2023/11/06 08:58:50;;;;;;;;;;;;;;;16.04;46.80;100368.50;5090173;28;1279;-42
2023/11/06 09:01:15;;;;;;;;;;;;;;;17.07;48.24;100372.91;5095234;28;1315;-48
2023/11/06 09:03:41;;;;;;;;;;;;;;;16.54;48.17;100372.66;5093723;28;1294;-42
2023/11/06 09:06:06;;;;;;;;;;;;;;;16.14;47.99;100368.66;5099239;28;1500;-41
2023/11/06 09:08:32;;;;;;;;;;;;;;;16.03;47.14;100364.19;5093462;28;1554;-41
2023/11/06 09:10:58;;;;;;;;;;;;;;;16.07;46.28;100362.97;5088087;28;1318;-46
2023/11/06 09:13:23;;;;;;;;;;;;;;;15.93;46.45;100366.66;5085997;28;1905;-46
2023/11/06 09:15:49;;;;;;;;;;;;;;;15.93;45.60;100371.97;5089060;28;1429;-43
2023/11/06 09:18:19;;;;;;;;;;;;;;;15.82;45.86;100374.56;5087200;28;1481;-48
2023/11/06 09:20:47;;;;;;;;;;;;;;;16.97;47.82;100371.03;5098867;28;1018;-41
2023/11/06 09:23:12;;;;;;;;;;;;;;;16.38;48.08;100373.03;5098727;28;1279;-49
2023/11/06 09:25:38;;;;;;;;;;;;;;;16.12;47.37;100365.25;5098550;28;1109;-46
2023/11/06 09:28:04;;;;;;;;;;;;;;;16.02;46.98;100360.66;5098850;28;1054;-47
2023/11/06 09:30:29;;;;;;;;;;;;;;;15.88;46.49;100374.13;5097926;28;1239;-47
2023/11/06 09:32:55;;;;;;;;;;;;;;;15.90;46.27;100369.53;5098216;28;1978;-39
2023/11/06 09:35:22;;;;;;;;;;;;;;;15.94;46.34;100368.34;5088725;28;2184;-43
2023/11/06 09:37:48;;;;;;;;;;;;;;;16.53;47.46;100381.59;5093542;28;2064;-39
2023/11/06 09:40:18;;;;;;;;;;;;;;;16.03;47.38;100365.00;5097898;28;2013;-44
2023/11/06 09:42:44;;;;;;;;;;;;;;;16.11;46.64;100383.00;5103240;28;2194;-43
2023/11/06 09:45:09;;;;;;;;;;;;;;;16.41;47.97;100383.41;5106651;28;1938;-42
2023/11/06 09:47:36;;;;;;;;;;;;;;;16.44;47.88;100382.28;5097457;28;2117;-43
2023/11/06 09:50:02;;;;;;;;;;;;;;;16.25;47.25;100379.28;5105868;28;1914;-44
2023/11/06 09:52:28;;;;;;;;;;;;;;;16.12;46.71;100376.72;5109979;28;1980;-40
2023/11/06 09:54:57;;;;;;;;;;;;;;;15.92;46.49;100386.19;5099256;28;1140;-43
2023/11/06 09:57:22;;;;;;;;;;;;;;;15.91;46.04;100377.38;5096274;28;1114;-46
2023/11/06 09:59:48;;;;;;;;;;;;;;;16.82;47.40;100385.53;5095252;28;2243;-42
2023/11/06 10:02:14;;;;;;;;;;;;;;;16.43;47.61;100383.28;5091306;28;1939;-40
2023/11/06 10:04:39;;;;;;;;;;;;;;;16.18;47.42;100374.56;5087994;28;1887;-41
2023/11/06 10:07:05;;;;;;;;;;;;;;;16.06;46.39;100369.25;5091597;28;2106;-41
2023/11/06 10:09:31;;;;;;;;;;;;;;;15.93;46.07;100377.28;5088353;28;1888;-46
2023/11/06 10:12:12;;;;;;;;;;;;;;;15.89;46.04;100376.66;5087978;28;2412;-47
2023/11/06 10:14:37;;;;;;;;;;;;;;;15.90;45.56;100378.34;5082764;28;1857;-45
2023/11/06 10:17:03;;;;;;;;;;;;;;;15.81;45.71;100380.84;5081751;28;1249;-40
2023/11/06 10:19:29;;;;;;;;;;;;;;;15.70;45.68;100374.53;5095673;28;1205;-47
2023/11/06 10:21:55;;;;;;;;;;;;;;;15.63;45.87;100384.75;5096443;28;1071;-48
2023/11/06 10:24:20;;;;;;;;;;;;;;;17.08;47.12;100377.28;5097229;28;1062;-41
2023/11/06 10:26:46;;;;;;;;;;;;;;;16.40;48.04;100381.69;5097527;28;1109;-48
2023/11/06 10:29:12;;;;;;;;;;;;;;;16.06;47.71;100387.81;5097166;28;1026;-48
2023/11/06 10:31:39;;;;;;;;;;;;;;;15.97;47.14;100397.28;5097442;28;1897;-47
2023/11/06 10:34:11;;;;;;;;;;;;;;;15.97;46.22;100396.44;5096811;28;1158;-47
2023/11/06 10:36:37;;;;;;;;;;;;;;;16.90;47.91;100391.06;5096025;28;1146;-48
2023/11/06 10:39:12;;;;;;;;;;;;;;;16.37;47.98;100401.38;5097383;28;855;-43
2023/11/06 10:41:38;;;;;;;;;;;;;;;16.10;47.45;100394.56;5097902;28;1126;-46
2023/11/06 10:44:04;;;;;;;;;;;;;;;15.98;46.78;100399.00;5097405;28;1150;-50
2023/11/06 10:46:31;;;;;;;;;;;;;;;15.93;46.06;100403.81;5095677;28;1058;-49
2023/11/06 10:49:06;;;;;;;;;;;;;;;16.76;47.14;100400.16;5079742;28;1279;-47
2023/11/06 10:51:32;;;;;;;;;;;;;;;16.20;47.54;100409.81;5089950;28;1901;-46
2023/11/06 10:53:59;;;;;;;;;;;;;;;16.08;47.07;100404.44;5088150;28;1190;-48
2023/11/06 10:56:24;;;;;;;;;;;;;;;16.02;46.21;100400.47;5084289;28;1327;-50
2023/11/06 10:58:50;;;;;;;;;;;;;;;15.94;45.97;100402.84;5092228;28;1383;-48
2023/11/06 11:01:15;;;;;;;;;;;;;;;15.85;45.94;100387.63;5092157;28;991;-48
2023/11/06 11:03:41;;;;;;;;;;;;;;;16.77;47.11;100407.16;5093959;28;805;-48
2023/11/06 11:06:07;;;;;;;;;;;;;;;16.20;47.15;100394.69;5129838;27;1156;-50
2023/11/06 11:08:33;;;;;;;;;;;;;;;16.08;46.77;100401.78;5095467;28;1121;-39
2023/11/06 11:10:58;;;;;;;;;;;;;;;15.90;46.61;100393.41;5093640;28;1166;-38
2023/11/06 11:13:24;;;;;;;;;;;;;;;15.95;45.91;100409.00;5095494;28;1972;-38
2023/11/06 11:15:50;;;;;;;;;;;;;;;15.84;45.83;100415.09;5096607;28;974;-38
2023/11/06 11:18:15;;;;;;;;;;;;;;;15.80;45.84;100398.56;5096382;28;1093;-38
2023/11/06 11:20:53;;;;;;;;;;;;;;;15.89;46.58;100418.25;5096677;28;1093;-39
2023/11/06 11:23:38;;;;;;;;;;;;;;;16.56;47.45;100418.53;5096270;28;1101;-38
2023/11/06 11:26:04;;;;;;;;;;;;;;;16.11;47.44;100412.19;5089345;28;1284;-48
2023/11/06 11:28:49;;;;;;;;;;;;;;;15.99;47.05;100392.75;5089635;28;1339;-45
2023/11/06 11:31:30;;;;;;;;;;;;;;;15.98;45.99;100395.50;5093609;28;1910;-41
2023/11/06 11:33:56;;;;;;;;;;;;;;;15.89;46.06;100392.56;5093595;28;1085;-44
2023/11/06 11:36:27;;;;;;;;;;;;;;;15.76;45.65;100402.41;5095734;28;1055;-44
2023/11/06 11:38:53;;;;;;;;;;;;;;;15.77;45.29;100412.06;5096329;28;1088;-45
2023/11/06 11:41:18;;;;;;;;;;;;;;;16.73;47.45;100413.69;5083570;28;1153;-41
2023/11/06 11:43:46;;;;;;;;;;;;;;;16.26;46.97;100409.31;5091666;28;1301;-46
2023/11/06 11:46:29;;;;;;;;;;;;;;;16.07;46.71;100397.47;5087170;28;1344;-46
2023/11/06 11:48:55;;;;;;;;;;;;;;;16.59;47.58;100422.72;5086032;28;1023;-44
2023/11/06 11:51:39;;;;;;;;;;;;;;;16.17;47.22;100421.47;5095605;28;1977;-42
2023/11/06 11:54:05;;;;;;;;;;;;;;;16.02;46.80;100420.84;5096345;28;1178;-48
2023/11/06 11:56:49;;;;;;;;;;;;;;;15.97;46.30;100407.91;5129098;27;1146;-48
2023/11/06 11:59:15;;;;;;;;;;;;;;;15.85;45.73;100414.16;5096656;28;1086;-48
2023/11/06 12:01:40;;;;;;;;;;;;;;;16.70;47.15;100420.06;5095739;28;1327;-48
2023/11/06 12:04:24;;;;;;;;;;;;;;;16.50;47.35;100430.47;5095211;28;1320;-51
2023/11/06 12:06:59;;;;;;;;;;;;;;;16.09;47.04;100424.72;5085815;28;1089;-49
2023/11/06 12:09:24;;;;;;;;;;;;;;;16.13;46.71;100412.91;5096342;28;1133;-44
2023/11/06 12:11:50;;;;;;;;;;;;;;;15.99;45.88;100423.72;5095818;28;1913;-48
2023/11/06 12:14:15;;;;;;;;;;;;;;;15.96;45.59;100423.94;5095969;28;1037;-48
2023/11/06 12:16:51;;;;;;;;;;;;;;;16.30;46.73;100418.72;5092088;28;1106;-46
2023/11/06 12:19:17;;;;;;;;;;;;;;;16.43;46.85;100431.91;5083574;28;1069;-47
2023/11/06 12:21:44;;;;;;;;;;;;;;;16.19;46.80;100427.53;5095791;28;1066;-47
2023/11/06 12:24:09;;;;;;;;;;;;;;;15.94;46.50;100437.31;5088475;28;1483;-45
2023/11/06 12:26:35;;;;;;;;;;;;;;;15.94;46.03;100439.13;5090147;28;1046;-47
2023/11/06 12:29:01;;;;;;;;;;;;;;;15.88;45.93;100441.25;5092046;28;1093;-46
2023/11/06 12:31:37;;;;;;;;;;;;;;;15.82;45.63;100443.53;5091089;28;1910;-51
2023/11/06 12:34:03;;;;;;;;;;;;;;;15.81;45.42;100449.81;5081260;28;1045;-50
2023/11/06 12:36:31;;;;;;;;;;;;;;;15.67;45.27;100452.53;5099112;28;1138;-52
2023/11/06 12:38:58;;;;;;;;;;;;;;;16.68;46.32;100443.28;5099556;28;1145;-50
2023/11/06 12:41:27;;;;;;;;;;;;;;;16.22;46.70;100443.22;5099492;28;1050;-52
2023/11/06 12:43:53;;;;;;;;;;;;;;;15.93;46.40;100448.91;5093925;28;1215;-50
2023/11/06 12:46:19;;;;;;;;;;;;;;;15.95;45.61;100452.25;5099288;28;1154;-52